Itabela, Brazil
Current Conditions -  °F | °C
As of 4:00 PM on Friday 28 Nov 2014 (Local Time) from SBPS Reporting Station
Few Clouds Few Clouds  
Wind Chill: 82°   Ceiling: Unl
Heat Index: 87°   Visibility: 6mi
Dew Point: 72°   Wind: 18mph
Humidity: 70%   Direction: 50°NE
Pressure: 29.85"   Gusts: NA
Location:  16.58°S, 39.55°W
Report Text: SBPS 281900Z 05016KT 9999 FEW020 28/22 Q1011
Loading
Personal Weather Stations






























Interactive Weather Map New forecast layout! Learn more

10-Day Weather Forecast

Advertisements
Track Severe Weather on mobile